createdAt,value
2022-08-10T00:01:53.513Z,102203.16
2022-08-10T00:04:27.121Z,102206.72
2022-08-10T00:06:55.689Z,102200.31
2022-08-10T00:09:24.448Z,102204.00
2022-08-10T00:11:51.721Z,102204.00
2022-08-10T00:14:19.402Z,102200.31
2022-08-10T00:16:46.900Z,102203.16
2022-08-10T00:19:16.402Z,102189.28
2022-08-10T00:21:49.150Z,102191.97
2022-08-10T00:24:18.434Z,102191.00
2022-08-10T00:28:01.555Z,102189.59
2022-08-10T00:29:34.884Z,102182.72
2022-08-10T00:32:02.413Z,102187.16
2022-08-10T00:34:33.230Z,102188.88
2022-08-10T00:37:01.006Z,102194.16
2022-08-10T00:39:29.450Z,102186.91
2022-08-10T00:42:02.161Z,102192.31
2022-08-10T00:44:40.775Z,102187.00
2022-08-10T00:47:10.361Z,102180.91
2022-08-10T00:49:56.839Z,102185.44
2022-08-10T00:52:26.749Z,102184.31
2022-08-10T00:54:56.212Z,102185.94
2022-08-10T00:57:25.530Z,102182.34
2022-08-10T00:59:57.822Z,102180.28
2022-08-10T01:02:28.060Z,102182.56
2022-08-10T01:05:00.419Z,102185.09
2022-08-10T01:08:16.132Z,102186.84
2022-08-10T01:12:30.102Z,102183.28
2022-08-10T01:14:55.491Z,102186.00
2022-08-10T01:18:09.332Z,102185.84
2022-08-10T01:21:53.990Z,102186.84
2022-08-10T01:25:16.673Z,102193.97
2022-08-10T01:28:21.051Z,102183.13
2022-08-10T01:30:55.994Z,102178.31
2022-08-10T01:33:59.006Z,102176.47
2022-08-10T01:36:35.297Z,102179.78
2022-08-10T01:39:06.235Z,102183.72
2022-08-10T01:41:46.935Z,102174.88
2022-08-10T01:44:25.324Z,102185.31
2022-08-10T01:47:40.020Z,102179.91
2022-08-10T01:50:53.349Z,102182.88
2022-08-10T01:53:41.582Z,102178.44
2022-08-10T01:56:14.134Z,102184.00
2022-08-10T01:58:44.096Z,102187.69
2022-08-10T02:01:17.604Z,102181.41
2022-08-10T02:04:05.019Z,102170.59
2022-08-10T02:06:42.038Z,102169.75
2022-08-10T02:09:17.069Z,102170.72
2022-08-10T02:11:57.538Z,102172.56
2022-08-10T02:14:46.129Z,102166.44
2022-08-10T02:18:00.140Z,102177.25
2022-08-10T02:20:43.434Z,102174.66
2022-08-10T02:23:22.289Z,102183.78
2022-08-10T02:25:53.113Z,102181.81
2022-08-10T02:28:29.269Z,102190.78
2022-08-10T02:31:18.431Z,102183.78
2022-08-10T02:33:57.536Z,102190.19
2022-08-10T02:36:36.551Z,102186.50
2022-08-10T02:39:08.294Z,102194.75
2022-08-10T02:45:14.712Z,102194.91
2022-08-10T02:45:24.229Z,102181.72
2022-08-10T02:48:01.543Z,102193.28
2022-08-10T02:50:35.899Z,102191.47
2022-08-10T02:53:55.408Z,102194.91
2022-08-10T02:56:54.107Z,102198.06
2022-08-10T02:59:39.661Z,102200.78
2022-08-10T03:02:16.160Z,102193.38
2022-08-10T03:04:55.303Z,102200.63
2022-08-10T03:07:43.516Z,102195.47
2022-08-10T03:10:21.498Z,102193.63
2022-08-10T03:12:56.461Z,102198.19
2022-08-10T03:15:28.582Z,102192.03
2022-08-10T03:17:59.008Z,102193.91
2022-08-10T03:20:38.933Z,102198.31
2022-08-10T03:23:18.497Z,102197.59
2022-08-10T03:25:53.647Z,102197.44
2022-08-10T03:28:26.722Z,102190.34
2022-08-10T03:30:55.909Z,102192.19
2022-08-10T03:33:29.094Z,102189.59
2022-08-10T03:36:43.462Z,102194.00
2022-08-10T03:38:46.069Z,102193.28
2022-08-10T03:41:16.818Z,102195.25
2022-08-10T03:43:49.650Z,102193.56
2022-08-10T03:46:24.053Z,102191.69
2022-08-10T03:48:57.826Z,102190.72
2022-08-10T03:51:27.391Z,102195.88
2022-08-10T03:54:05.703Z,102195.88
2022-08-10T03:56:40.426Z,102183.34
2022-08-10T03:59:14.511Z,102191.78
2022-08-10T04:02:46.059Z,102205.06
2022-08-10T04:04:30.830Z,102200.09
2022-08-10T04:07:00.563Z,102197.28
2022-08-10T04:09:54.637Z,102206.25
2022-08-10T04:12:22.385Z,102203.41
2022-08-10T04:14:51.995Z,102201.44
2022-08-10T04:17:56.846Z,102204.16
2022-08-10T04:20:34.209Z,102204.88
2022-08-10T04:23:12.339Z,102207.31
2022-08-10T04:25:41.021Z,102211.34
2022-08-10T04:28:10.772Z,102200.38
2022-08-10T04:30:40.795Z,102211.41
2022-08-10T04:33:18.314Z,102204.47
2022-08-10T04:35:48.068Z,102202.09
2022-08-10T04:38:19.049Z,102202.41
2022-08-10T04:40:47.634Z,102212.44
2022-08-10T04:43:15.596Z,102211.75
2022-08-10T04:45:49.123Z,102206.53
2022-08-10T04:48:43.455Z,102211.97
2022-08-10T04:51:08.123Z,102202.91
2022-08-10T04:54:02.748Z,102205.41
2022-08-10T04:56:32.020Z,102203.13
2022-08-10T04:59:00.862Z,102198.31
2022-08-10T05:02:21.590Z,102200.19
2022-08-10T05:04:38.540Z,102205.78
2022-08-10T05:07:01.782Z,102204.03
2022-08-10T05:09:28.577Z,102202.63
2022-08-10T05:11:55.288Z,102205.91
2022-08-10T05:14:21.954Z,102202.25
2022-08-10T05:16:48.640Z,102198.25
2022-08-10T05:19:15.300Z,102207.00
2022-08-10T05:21:52.171Z,102207.63
2022-08-10T05:24:28.701Z,102211.22
2022-08-10T05:27:10.217Z,102203.78
2022-08-10T05:29:40.395Z,102198.41
2022-08-10T05:32:07.728Z,102204.59
2022-08-10T05:34:34.476Z,102201.91
2022-08-10T05:37:02.485Z,102203.81
2022-08-10T05:39:31.975Z,102202.75
2022-08-10T05:42:01.812Z,102205.91
2022-08-10T05:44:30.087Z,102202.41
2022-08-10T05:46:57.371Z,102212.56
2022-08-10T05:49:24.789Z,102205.25
2022-08-10T05:51:55.005Z,102213.63
2022-08-10T05:54:21.905Z,102212.59
2022-08-10T05:56:55.903Z,102206.09
2022-08-10T06:00:10.979Z,102205.16
2022-08-10T06:02:36.492Z,102198.13
2022-08-10T06:05:13.558Z,102196.81
2022-08-10T06:07:49.169Z,102194.25
2022-08-10T06:10:31.330Z,102197.97
2022-08-10T06:13:29.851Z,102197.13
2022-08-10T06:16:07.520Z,102200.28
2022-08-10T06:18:37.307Z,102208.91
2022-08-10T06:21:09.518Z,102212.22
2022-08-10T06:23:38.962Z,102214.69
2022-08-10T06:26:13.430Z,102220.09
2022-08-10T06:29:10.939Z,102221.03
2022-08-10T06:31:47.636Z,102222.19
2022-08-10T06:34:25.946Z,102220.16
2022-08-10T06:36:59.356Z,102211.41
2022-08-10T06:39:36.110Z,102216.78
2022-08-10T06:42:27.066Z,102217.88
2022-08-10T06:45:20.936Z,102216.59
2022-08-10T06:48:20.962Z,102221.75
2022-08-10T06:50:59.354Z,102224.59
2022-08-10T06:53:52.063Z,102216.34
2022-08-10T06:56:37.777Z,102216.75
2022-08-10T06:59:26.027Z,102222.31
2022-08-10T07:02:15.796Z,102231.44
2022-08-10T07:05:06.459Z,102232.50
2022-08-10T07:07:40.816Z,102234.69
2022-08-10T07:10:10.512Z,102240.72
2022-08-10T07:12:40.763Z,102240.22
2022-08-10T07:15:12.841Z,102243.81
2022-08-10T07:17:41.748Z,102239.81
2022-08-10T07:20:16.351Z,102241.72
2022-08-10T07:23:51.891Z,102241.06
2022-08-10T07:25:39.446Z,102245.69
2022-08-10T07:28:08.409Z,102252.22
2022-08-10T07:30:41.420Z,102243.84
2022-08-10T07:33:11.551Z,102249.69
2022-08-10T07:35:44.017Z,102245.06
2022-08-10T07:38:22.112Z,102243.34
2022-08-10T07:40:52.899Z,102248.66
2022-08-10T07:43:26.774Z,102248.06
2022-08-10T07:45:57.084Z,102252.75
2022-08-10T07:48:32.154Z,102252.94
2022-08-10T07:51:02.815Z,102259.53
2022-08-10T07:53:53.046Z,102260.38
2022-08-10T07:56:48.032Z,102264.81
2022-08-10T07:59:35.808Z,102264.00
2022-08-10T08:02:07.731Z,102263.13
2022-08-10T08:04:36.710Z,102263.13
2022-08-10T08:07:04.528Z,102270.38
2022-08-10T08:09:37.586Z,102263.94
2022-08-10T08:12:25.412Z,102267.78
2022-08-10T08:14:55.589Z,102266.91
2022-08-10T08:17:36.265Z,102268.53
2022-08-10T08:20:07.479Z,102274.09
2022-08-10T08:24:06.699Z,102268.13
2022-08-10T08:25:24.650Z,102269.13
2022-08-10T08:27:56.183Z,102269.13
2022-08-10T08:30:27.658Z,102264.84
2022-08-10T08:32:58.146Z,102267.53
2022-08-10T08:35:27.073Z,102260.84
2022-08-10T08:38:31.803Z,102263.06
2022-08-10T08:40:58.553Z,102261.56
2022-08-10T08:44:11.655Z,102260.44
2022-08-10T08:48:03.301Z,102260.25
2022-08-10T08:50:33.994Z,102255.44
2022-08-10T08:54:01.740Z,102244.78
2022-08-10T08:56:49.556Z,102244.00
2022-08-10T09:00:10.026Z,102247.03
2022-08-10T09:03:07.239Z,102238.28
2022-08-10T09:06:20.868Z,102247.00
2022-08-10T09:09:42.733Z,102239.00
2022-08-10T09:12:43.667Z,102235.56
2022-08-10T09:15:58.619Z,102239.25
2022-08-10T09:18:53.163Z,102237.53
2022-08-10T09:22:18.936Z,102240.94
2022-08-10T09:25:21.339Z,102240.63
2022-08-10T09:28:07.954Z,102235.09
2022-08-10T09:31:18.810Z,102230.28
2022-08-10T09:36:23.870Z,102227.97
2022-08-10T09:38:01.405Z,102236.13
2022-08-10T09:41:03.296Z,102231.34
2022-08-10T09:44:19.985Z,102230.72
2022-08-10T09:47:58.853Z,102230.47
2022-08-10T09:51:20.977Z,102221.84
2022-08-10T09:54:37.204Z,102226.41
2022-08-10T09:57:44.232Z,102217.31
2022-08-10T10:00:20.526Z,102220.22
2022-08-10T10:03:12.135Z,102216.59
2022-08-10T10:06:13.165Z,102212.50
2022-08-10T10:09:10.140Z,102210.88
2022-08-10T10:12:09.831Z,102205.84
2022-08-10T10:15:37.780Z,102203.94
2022-08-10T10:19:01.615Z,102201.28
2022-08-10T10:21:56.226Z,102196.56
2022-08-10T10:24:50.496Z,102196.91
2022-08-10T10:27:47.889Z,102194.53
2022-08-10T10:30:19.991Z,102196.16
2022-08-10T10:33:44.353Z,102197.03
2022-08-10T10:36:16.456Z,102197.41
2022-08-10T10:38:45.968Z,102200.31
2022-08-10T10:41:56.233Z,102196.53
2022-08-10T10:45:31.464Z,102198.81
2022-08-10T10:48:29.029Z,102194.00
2022-08-10T10:51:12.442Z,102191.81
2022-08-10T10:54:10.529Z,102184.44
2022-08-10T10:57:59.179Z,102174.75
2022-08-10T11:00:21.928Z,102177.94
2022-08-10T11:03:38.865Z,102180.69
2022-08-10T11:06:34.218Z,102171.16
2022-08-10T11:10:03.695Z,102179.97
2022-08-10T11:12:45.063Z,102169.47
2022-08-10T11:15:31.820Z,102163.44
2022-08-10T11:18:45.652Z,102167.56
2022-08-10T11:21:43.535Z,102171.28
2022-08-10T11:24:52.962Z,102168.63
2022-08-10T11:27:52.834Z,102155.22
2022-08-10T11:30:43.297Z,102163.31
2022-08-10T11:37:04.996Z,102169.50
2022-08-10T11:40:01.498Z,102158.97
2022-08-10T11:43:11.179Z,102150.50
2022-08-10T11:45:55.513Z,102154.25
2022-08-10T11:48:53.461Z,102148.94
2022-08-10T11:51:52.685Z,102148.25
2022-08-10T11:54:35.377Z,102146.00
2022-08-10T11:57:02.959Z,102144.22
2022-08-10T11:59:58.088Z,102143.28
2022-08-10T12:03:07.372Z,102143.53
2022-08-10T12:05:51.916Z,102143.88
2022-08-10T12:10:04.572Z,102142.56
2022-08-10T12:11:29.423Z,102138.16
2022-08-10T12:14:49.458Z,102139.53
2022-08-10T12:17:43.907Z,102134.31
2022-08-10T12:20:40.661Z,102135.81
2022-08-10T12:23:30.059Z,102130.28
2022-08-10T12:26:19.058Z,102132.00
2022-08-10T12:29:24.818Z,102122.44
2022-08-10T12:32:05.567Z,102128.31
2022-08-10T12:34:53.135Z,102122.53
2022-08-10T12:37:56.860Z,102121.19
2022-08-10T12:40:35.687Z,102111.00
2022-08-10T12:44:06.604Z,102115.94
2022-08-10T12:46:34.153Z,102114.41
2022-08-10T12:49:19.892Z,102121.03
2022-08-10T12:52:03.849Z,102112.97
2022-08-10T12:54:36.881Z,102118.50
2022-08-10T12:57:28.416Z,102107.28
2022-08-10T13:00:05.307Z,102113.31
2022-08-10T13:02:39.040Z,102119.13
2022-08-10T13:05:13.399Z,102117.66
2022-08-10T13:08:25.579Z,102111.97
2022-08-10T13:11:03.238Z,102102.22
2022-08-10T13:13:39.766Z,102100.03
2022-08-10T13:16:07.978Z,102101.22
2022-08-10T13:18:46.940Z,102099.63
2022-08-10T13:21:20.473Z,102096.53
2022-08-10T13:24:07.277Z,102106.56
2022-08-10T13:27:11.660Z,102098.59
2022-08-10T13:29:48.946Z,102107.78
2022-08-10T13:32:27.481Z,102106.09
2022-08-10T13:35:02.751Z,102102.47
2022-08-10T13:37:34.917Z,102097.41
2022-08-10T13:40:04.446Z,102087.09
2022-08-10T13:42:39.925Z,102088.19
2022-08-10T13:45:14.614Z,102087.97
2022-08-10T13:47:50.142Z,102080.84
2022-08-10T13:50:40.689Z,102081.94
2022-08-10T13:53:15.635Z,102086.38
2022-08-10T13:55:54.909Z,102091.34
2022-08-10T13:58:39.149Z,102082.28
2022-08-10T14:01:15.305Z,102073.78
2022-08-10T14:03:46.375Z,102080.13
2022-08-10T14:06:17.395Z,102076.09
2022-08-10T14:09:05.033Z,102064.19
2022-08-10T14:11:36.038Z,102068.56
2022-08-10T14:14:19.135Z,102068.94
2022-08-10T14:17:00.234Z,102063.13
2022-08-10T14:19:43.399Z,102068.13
2022-08-10T14:22:17.139Z,102068.56
2022-08-10T14:24:48.814Z,102072.72
2022-08-10T14:27:20.244Z,102057.09
2022-08-10T14:29:55.356Z,102059.41
2022-08-10T14:32:30.440Z,102065.97
2022-08-10T14:36:18.940Z,102052.47
2022-08-10T14:38:09.073Z,102053.63
2022-08-10T14:40:49.396Z,102050.16
2022-08-10T14:43:28.568Z,102059.66
2022-08-10T14:46:07.316Z,102046.78
2022-08-10T14:48:47.566Z,102040.81
2022-08-10T14:51:20.758Z,102042.59
2022-08-10T14:54:01.017Z,102034.94
2022-08-10T14:56:33.989Z,102033.19
2022-08-10T14:59:09.683Z,102034.78
2022-08-10T15:02:37.567Z,102025.19
2022-08-10T15:04:37.954Z,102032.09
2022-08-10T15:07:29.602Z,102023.97
2022-08-10T15:10:03.751Z,102026.13
2022-08-10T15:12:44.112Z,102022.03
2022-08-10T15:15:16.418Z,102020.75
2022-08-10T15:17:58.370Z,102014.25
2022-08-10T15:20:29.928Z,102019.44
2022-08-10T15:23:08.370Z,102010.22
2022-08-10T15:26:10.649Z,102013.16
2022-08-10T15:29:24.372Z,102007.75
2022-08-10T15:32:00.030Z,102005.09
2022-08-10T15:34:49.224Z,102009.31
2022-08-10T15:37:40.407Z,102009.63
2022-08-10T15:40:21.353Z,102000.91
2022-08-10T15:43:05.799Z,102006.34
2022-08-10T15:45:55.790Z,101994.50
2022-08-10T15:48:29.522Z,101993.06
2022-08-10T15:51:28.552Z,101992.94
2022-08-10T15:54:12.108Z,101996.22
2022-08-10T15:57:14.269Z,101999.66
2022-08-10T15:59:58.165Z,102002.50
2022-08-10T16:02:30.022Z,101998.81
2022-08-10T16:05:15.430Z,101995.75
2022-08-10T16:08:13.962Z,102003.16
2022-08-10T16:11:03.572Z,101995.47
2022-08-10T16:13:59.872Z,101985.34
2022-08-10T16:16:37.623Z,101993.97
2022-08-10T16:19:22.272Z,101993.47
2022-08-10T16:22:34.478Z,102008.06
2022-08-10T16:24:56.433Z,102003.56
2022-08-10T16:27:32.325Z,102003.94
2022-08-10T16:30:05.996Z,102005.09
2022-08-10T16:32:47.608Z,101994.72
2022-08-10T16:35:21.310Z,101992.16
2022-08-10T16:37:56.700Z,101995.75
2022-08-10T16:40:29.821Z,101991.25
2022-08-10T16:43:35.042Z,101983.97
2022-08-10T16:46:11.509Z,101976.69
2022-08-10T16:48:49.162Z,101984.25
2022-08-10T16:51:25.178Z,101982.03
2022-08-10T16:53:55.095Z,101973.72
2022-08-10T16:56:48.585Z,101974.28
2022-08-10T16:59:24.349Z,101960.75
2022-08-10T17:01:58.280Z,101967.22
2022-08-10T17:04:28.961Z,101968.16
2022-08-10T17:07:08.382Z,101964.78
2022-08-10T17:09:39.528Z,101967.34
2022-08-10T17:12:13.303Z,101955.69
2022-08-10T17:14:46.007Z,101954.75
2022-08-10T17:17:34.930Z,101950.13
2022-08-10T17:20:30.119Z,101949.69
2022-08-10T17:23:04.574Z,101941.63
2022-08-10T17:25:46.702Z,101937.78
2022-08-10T17:28:34.825Z,101944.03
2022-08-10T17:31:39.725Z,101929.34
2022-08-10T17:34:49.915Z,101927.47
2022-08-10T17:37:22.606Z,101921.44
2022-08-10T17:40:10.578Z,101927.31
2022-08-10T17:42:45.837Z,101927.03
2022-08-10T17:45:47.034Z,101925.69
2022-08-10T17:48:24.867Z,101934.31
2022-08-10T17:50:55.902Z,101926.00
2022-08-10T17:53:47.559Z,101927.41
2022-08-10T17:56:19.365Z,101927.34
2022-08-10T17:58:57.645Z,101931.25
2022-08-10T18:01:42.074Z,101927.78
2022-08-10T18:04:22.326Z,101927.06
2022-08-10T18:07:00.212Z,101928.72
2022-08-10T18:09:36.778Z,101926.91
2022-08-10T18:12:18.365Z,101930.47
2022-08-10T18:14:52.906Z,101920.75
2022-08-10T18:17:33.242Z,101918.53
2022-08-10T18:20:09.744Z,101916.38
2022-08-10T18:22:47.923Z,101930.03
2022-08-10T18:25:35.591Z,101922.78
2022-08-10T18:28:09.563Z,101923.75
2022-08-10T18:30:49.683Z,101922.06
2022-08-10T18:33:25.213Z,101919.72
2022-08-10T18:36:14.130Z,101919.69
2022-08-10T18:38:50.915Z,101916.13
2022-08-10T18:41:38.718Z,101920.59
2022-08-10T18:44:36.018Z,101917.75
2022-08-10T18:47:19.596Z,101921.78
2022-08-10T18:50:12.374Z,101923.06
2022-08-10T18:52:53.135Z,101921.81
2022-08-10T18:55:35.394Z,101925.31
2022-08-10T18:59:02.740Z,101921.81
2022-08-10T19:01:55.300Z,101920.09
2022-08-10T19:05:03.497Z,101925.25
2022-08-10T19:08:31.269Z,101919.59
2022-08-10T19:11:37.839Z,101917.06
2022-08-10T19:14:19.219Z,101923.66
2022-08-10T19:17:13.750Z,101920.53
2022-08-10T19:20:30.007Z,101927.69
2022-08-10T19:23:26.239Z,101934.97
2022-08-10T19:26:44.621Z,101931.91
2022-08-10T19:30:13.364Z,101932.41
2022-08-10T19:33:19.862Z,101937.09
2022-08-10T19:36:29.744Z,101937.09
2022-08-10T19:39:51.059Z,101940.25
2022-08-10T19:42:39.100Z,101942.63
2022-08-10T19:46:01.731Z,101947.38
2022-08-10T19:49:41.881Z,101936.91
2022-08-10T19:52:50.600Z,101945.22
2022-08-10T19:56:30.702Z,101942.28
2022-08-10T20:00:16.378Z,101943.09
2022-08-10T20:02:36.291Z,101935.56
2022-08-10T20:05:17.687Z,101945.03
2022-08-10T20:08:07.508Z,101945.97
2022-08-10T20:11:06.055Z,101947.41
2022-08-10T20:14:21.902Z,101939.00
2022-08-10T20:16:56.000Z,101940.66
2022-08-10T20:20:14.526Z,101934.13
2022-08-10T20:23:35.283Z,101942.63
2022-08-10T20:26:27.135Z,101940.66
2022-08-10T20:29:57.057Z,101945.13
2022-08-10T20:32:20.554Z,101941.28
2022-08-10T20:35:04.345Z,101937.47
2022-08-10T20:38:04.121Z,101933.66
2022-08-10T20:41:01.310Z,101939.25
2022-08-10T20:43:52.188Z,101934.13
2022-08-10T20:46:32.350Z,101930.00
2022-08-10T20:49:30.925Z,101932.47
2022-08-10T20:52:04.722Z,101929.69
2022-08-10T20:54:50.881Z,101929.00
2022-08-10T20:58:01.968Z,101930.44
2022-08-10T21:01:04.169Z,101924.03
2022-08-10T21:04:16.555Z,101926.03
2022-08-10T21:07:59.885Z,101925.72
2022-08-10T21:10:35.872Z,101925.84
2022-08-10T21:13:27.499Z,101919.88
2022-08-10T21:16:24.634Z,101920.19
2022-08-10T21:19:38.350Z,101925.91
2022-08-10T21:22:29.105Z,101929.63
2022-08-10T21:25:19.496Z,101922.63
2022-08-10T21:28:35.958Z,101930.94
2022-08-10T21:31:52.066Z,101926.66
2022-08-10T21:35:44.807Z,101919.50
2022-08-10T21:38:34.547Z,101926.94
2022-08-10T21:41:57.933Z,101927.25
2022-08-10T21:45:58.676Z,101916.28
2022-08-10T21:49:53.039Z,101914.72
2022-08-10T21:53:03.803Z,101914.59
2022-08-10T21:56:26.546Z,101918.28
2022-08-10T21:59:43.330Z,101917.06
2022-08-10T22:02:40.997Z,101902.50
2022-08-10T22:05:44.104Z,101905.81
2022-08-10T22:08:37.170Z,101905.81
2022-08-10T22:11:37.344Z,101904.41
2022-08-10T22:14:33.526Z,101902.28
2022-08-10T22:18:10.693Z,101895.31
2022-08-10T22:20:50.816Z,101899.16
2022-08-10T22:23:36.212Z,101895.72
2022-08-10T22:27:46.063Z,101891.91
2022-08-10T22:30:37.783Z,101903.19
2022-08-10T22:34:15.927Z,101899.78
2022-08-10T22:37:21.787Z,101900.66
2022-08-10T22:40:34.442Z,101901.50
2022-08-10T22:43:35.829Z,101901.50
2022-08-10T22:46:39.129Z,101901.63
2022-08-10T22:49:07.122Z,101896.66
2022-08-10T22:52:02.599Z,101900.66
2022-08-10T22:55:12.133Z,101901.94
2022-08-10T22:58:07.126Z,101901.84
2022-08-10T23:00:36.951Z,101895.13
2022-08-10T23:03:21.742Z,101890.16
2022-08-10T23:06:14.535Z,101895.88
2022-08-10T23:08:48.194Z,101889.16
2022-08-10T23:11:27.393Z,101891.31
2022-08-10T23:14:10.410Z,101882.34
2022-08-10T23:17:08.825Z,101880.47
2022-08-10T23:19:47.068Z,101878.31
2022-08-10T23:22:33.893Z,101869.06
2022-08-10T23:25:30.138Z,101876.19
2022-08-10T23:28:12.376Z,101880.31
2022-08-10T23:30:45.245Z,101871.31
2022-08-10T23:33:37.499Z,101876.31
2022-08-10T23:36:33.881Z,101880.16
2022-08-10T23:39:24.545Z,101873.31
2022-08-10T23:42:07.832Z,101880.91
2022-08-10T23:44:47.581Z,101880.91
2022-08-10T23:47:22.023Z,101874.75
2022-08-10T23:49:56.222Z,101882.59
2022-08-10T23:52:33.369Z,101878.75
2022-08-10T23:55:11.281Z,101885.91
2022-08-10T23:57:47.418Z,101887.91
